РПИ Якутск

.

Сквоки, район применения ICAO EUR-I:

Чульман 3240-3244

Мирный 0510-0514

Якутск 0501-0507, 0515-0527, 3220-3237, 3245-3257

Лого Якутск
Руководство

Sergey Balandin*

Куратор
Инструкторы РПИ
Ivan Aksenenko (Instructor)
Sergey Balandin (Senior Instructor)
Входит в состав
Восточная Россия

Диспетчеры РПИ

Диспетчер Рейтинг Допуски *
Ashot Hakobyan Controller UEEE_CTR
Lihan Bao Controller UEEE_CTR
Maxim Osmolovskiy Instructor UEEE_CTR
Sergey Balandin Senior Instructor UEEE_CTR
Alexander Vasiliev Student UEEE_GND, UEEE_TWR*
Daniel Cherednichenko Student 2 UEEE_TWR
Egor Garifulin Student 2 UEEE_TWR!!!
Ivan Pivovarov Student 2 UEEE_GND
Maxim Korobko Senior Student UEEE_APP
Michail Shlyachkov Student UEEE_GND*
Nikita Brynkov Student 2 UEEE_TWR
Shokhruz Shepelev Student UEEE_GND*

Аэропорты РПИ

ICAO Город Название Погода
UERL Ленск Ленск
UERR Мирный Мирный UERR 020700Z 31002MPS CAVOK M13/M19 Q1012 R25/410150 NOSIG RMK QFE728/0971
UELL Нерюнгри Чульман
UEST Тикси Тикси
UERP Удачный Полярный UERP 020700Z 28003MPS 9999 -SN SCT043 BKN100 M15/M17 Q1010 NOSIG RMK QFE713
UESS Черский Черский
UEEE Якутск Якутск UEEE 020700Z 15002MPS CAVOK M20/M26 Q1006 R23/490152 NOSIG RMK QFE746
UEMU Усть-Мая Усть-Мая